createdAt,value
2018-07-22T00:01:51.336Z,16.30
2018-07-22T00:04:23.944Z,16.30
2018-07-22T00:06:58.957Z,16.30
2018-07-22T00:09:30.831Z,16.30
2018-07-22T00:12:02.178Z,16.30
2018-07-22T00:14:33.228Z,16.30
2018-07-22T00:17:03.164Z,16.20
2018-07-22T00:19:34.994Z,16.20
2018-07-22T00:22:08.782Z,16.10
2018-07-22T00:24:39.516Z,16.10
2018-07-22T00:27:11.496Z,16.00
2018-07-22T00:29:47.212Z,16.00
2018-07-22T00:32:16.652Z,16.00
2018-07-22T00:34:47.388Z,16.00
2018-07-22T00:37:17.285Z,15.90
2018-07-22T00:39:50.128Z,15.90
2018-07-22T00:42:20.920Z,15.90
2018-07-22T00:44:51.754Z,15.90
2018-07-22T00:47:24.734Z,15.90
2018-07-22T00:49:56.337Z,15.90
2018-07-22T00:53:56.735Z,15.90
2018-07-22T00:56:26.968Z,15.90
2018-07-22T00:58:56.550Z,15.80
2018-07-22T01:01:29.244Z,15.80
2018-07-22T01:03:58.540Z,15.70
2018-07-22T01:06:30.400Z,15.70
2018-07-22T01:09:01.565Z,15.70
2018-07-22T01:11:32.077Z,15.70
2018-07-22T01:14:05.276Z,15.70
2018-07-22T01:16:39.270Z,15.70
2018-07-22T01:19:10.528Z,15.70
2018-07-22T01:21:40.559Z,15.70
2018-07-22T01:24:15.465Z,15.70
2018-07-22T01:26:46.550Z,15.60
2018-07-22T01:29:18.677Z,15.60
2018-07-22T01:31:51.455Z,15.60
2018-07-22T01:34:23.597Z,15.60
2018-07-22T01:36:53.552Z,15.60
2018-07-22T01:39:22.940Z,15.70
2018-07-22T01:41:53.272Z,15.70
2018-07-22T01:44:27.180Z,15.80
2018-07-22T01:46:57.111Z,15.80
2018-07-22T01:49:27.931Z,15.80
2018-07-22T01:52:01.425Z,15.80
2018-07-22T01:54:32.349Z,15.80
2018-07-22T01:59:36.672Z,15.80
2018-07-22T02:02:08.931Z,15.80
2018-07-22T02:07:15.150Z,15.70
2018-07-22T02:09:50.769Z,15.70
2018-07-22T02:15:09.856Z,15.70
2018-07-22T02:17:39.085Z,15.60
2018-07-22T02:20:13.611Z,15.60
2018-07-22T02:22:44.421Z,15.60
2018-07-22T02:25:14.109Z,15.70
2018-07-22T02:27:50.252Z,15.60
2018-07-22T02:30:19.897Z,15.60
2018-07-22T02:32:51.267Z,15.50
2018-07-22T02:35:21.791Z,15.50
2018-07-22T02:37:53.945Z,15.40
2018-07-22T02:40:24.582Z,15.40
2018-07-22T02:42:57.560Z,15.50
2018-07-22T02:45:31.989Z,15.40
2018-07-22T02:48:04.981Z,15.40
2018-07-22T02:50:36.516Z,15.50
2018-07-22T02:53:08.928Z,15.50
2018-07-22T02:55:38.432Z,15.50
2018-07-22T02:58:08.851Z,15.50
2018-07-22T03:00:46.869Z,15.50
2018-07-22T03:03:16.897Z,15.40
2018-07-22T03:05:48.796Z,15.40
2018-07-22T03:10:49.134Z,15.40
2018-07-22T03:15:49.804Z,15.40
2018-07-22T03:20:56.988Z,15.30
2018-07-22T03:28:32.052Z,15.30
2018-07-22T03:33:32.137Z,15.30
2018-07-22T03:36:01.834Z,15.30
2018-07-22T03:38:31.558Z,15.40
2018-07-22T03:41:06.462Z,15.40
2018-07-22T03:43:36.617Z,15.40
2018-07-22T03:46:11.167Z,15.40
2018-07-22T03:48:43.124Z,15.40
2018-07-22T03:51:17.621Z,15.40
2018-07-22T03:53:50.876Z,15.50
2018-07-22T03:58:56.038Z,15.40
2018-07-22T04:03:58.068Z,15.50
2018-07-22T04:06:28.277Z,15.50
2018-07-22T04:09:01.029Z,15.40
2018-07-22T04:11:38.722Z,15.30
2018-07-22T04:14:25.226Z,15.30
2018-07-22T04:17:05.371Z,15.30
2018-07-22T04:25:23.092Z,15.40
2018-07-22T04:28:05.349Z,15.40
2018-07-22T04:30:44.044Z,15.40
2018-07-22T04:33:24.916Z,15.40
2018-07-22T04:36:00.137Z,15.40
2018-07-22T04:44:03.216Z,15.40
2018-07-22T04:46:42.339Z,15.40
2018-07-22T04:49:20.952Z,15.40
2018-07-22T04:54:28.108Z,15.50
2018-07-22T04:57:00.069Z,15.50
2018-07-22T04:59:37.525Z,15.50
2018-07-22T05:02:10.090Z,15.60
2018-07-22T05:04:40.481Z,15.70
2018-07-22T05:07:11.368Z,15.80
2018-07-22T05:09:43.548Z,15.90
2018-07-22T05:12:12.764Z,15.80
2018-07-22T05:14:41.884Z,15.90
2018-07-22T05:17:11.194Z,16.10
2018-07-22T05:19:40.662Z,16.10
2018-07-22T05:22:09.777Z,16.20
2018-07-22T05:24:40.062Z,16.30
2018-07-22T05:27:09.250Z,16.40
2018-07-22T05:32:08.159Z,16.70
2018-07-22T05:37:11.970Z,17.10
2018-07-22T05:39:41.244Z,17.20
2018-07-22T05:42:10.437Z,17.20
2018-07-22T05:44:39.872Z,17.20
2018-07-22T05:49:39.180Z,17.30
2018-07-22T05:59:38.144Z,17.60
2018-07-22T06:02:09.582Z,17.60
2018-07-22T06:12:16.669Z,18.00
2018-07-22T06:14:46.192Z,18.10
2018-07-22T06:17:18.436Z,18.40
2018-07-22T06:19:50.636Z,18.50
2018-07-22T06:22:22.524Z,18.80
2018-07-22T06:24:56.092Z,18.90
2018-07-22T06:27:33.533Z,19.00
2018-07-22T06:30:06.417Z,18.90
2018-07-22T06:32:36.685Z,18.80
2018-07-22T06:35:06.918Z,19.10
2018-07-22T06:37:39.365Z,18.70
2018-07-22T06:40:13.074Z,18.30
2018-07-22T06:42:46.101Z,18.50
2018-07-22T06:45:21.197Z,18.70
2018-07-22T06:47:53.492Z,18.70
2018-07-22T06:50:24.832Z,18.70
2018-07-22T06:52:57.537Z,19.00
2018-07-22T06:55:27.983Z,18.90
2018-07-22T07:00:27.268Z,19.20
2018-07-22T07:03:04.557Z,19.60
2018-07-22T07:05:37.368Z,19.80
2018-07-22T07:08:14.904Z,20.00
2018-07-22T07:10:44.629Z,20.20
2018-07-22T07:13:19.859Z,20.00
2018-07-22T07:15:50.415Z,20.00
2018-07-22T07:18:21.676Z,20.00
2018-07-22T07:23:30.162Z,20.00
2018-07-22T07:25:59.372Z,19.80
2018-07-22T07:28:31.230Z,19.80
2018-07-22T07:31:04.861Z,20.10
2018-07-22T07:33:40.256Z,20.40
2018-07-22T07:36:12.829Z,20.70
2018-07-22T07:38:48.861Z,20.80
2018-07-22T07:41:20.494Z,20.80
2018-07-22T07:43:53.093Z,20.80
2018-07-22T07:46:27.391Z,20.80
2018-07-22T07:49:01.616Z,21.20
2018-07-22T07:51:33.879Z,22.50
2018-07-22T07:54:11.232Z,24.00
2018-07-22T07:56:41.458Z,24.10
2018-07-22T07:59:13.284Z,23.40
2018-07-22T08:01:45.892Z,24.10
2018-07-22T08:04:19.016Z,25.10
2018-07-22T08:06:50.496Z,26.40
2018-07-22T08:11:52.310Z,28.40
2018-07-22T08:14:22.273Z,27.10
2018-07-22T08:16:52.485Z,27.60
2018-07-22T08:19:23.640Z,27.60
2018-07-22T08:21:53.441Z,28.30
2018-07-22T08:24:24.467Z,28.00
2018-07-22T08:26:56.673Z,27.30
2018-07-22T08:29:33.491Z,27.80
2018-07-22T08:32:06.788Z,27.80
2018-07-22T08:34:38.248Z,27.10
2018-07-22T08:37:08.785Z,27.30
2018-07-22T08:39:39.280Z,27.90
2018-07-22T08:42:14.097Z,27.40
2018-07-22T08:47:16.630Z,27.80
2018-07-22T08:49:47.564Z,28.00
2018-07-22T08:52:19.460Z,27.50
2018-07-22T08:54:51.559Z,27.50
2018-07-22T08:59:51.530Z,26.40
2018-07-22T09:02:23.608Z,26.30
2018-07-22T09:05:01.244Z,26.30
2018-07-22T09:10:03.212Z,27.00
2018-07-22T09:12:35.167Z,26.40
2018-07-22T09:15:08.671Z,25.90
2018-07-22T09:17:42.299Z,25.90
2018-07-22T09:20:12.290Z,26.00
2018-07-22T09:22:44.370Z,25.70
2018-07-22T09:27:49.605Z,25.60
2018-07-22T09:30:22.867Z,24.80
2018-07-22T09:32:52.996Z,25.00
2018-07-22T09:35:24.436Z,25.10
2018-07-22T09:37:54.584Z,25.40
2018-07-22T09:40:28.568Z,25.20
2018-07-22T09:43:02.166Z,25.80
2018-07-22T09:45:37.734Z,26.70
2018-07-22T09:50:40.214Z,28.30
2018-07-22T09:53:09.656Z,28.40
2018-07-22T09:55:39.848Z,28.40
2018-07-22T09:58:12.016Z,28.10
2018-07-22T10:00:50.833Z,27.70
2018-07-22T10:03:20.905Z,28.00
2018-07-22T10:05:52.813Z,27.20
2018-07-22T10:08:23.950Z,27.00
2018-07-22T10:10:54.868Z,27.40
2018-07-22T10:13:25.672Z,28.50
2018-07-22T10:18:27.400Z,30.40
2018-07-22T10:20:59.176Z,29.30
2018-07-22T10:23:28.935Z,30.60
2018-07-22T10:26:01.618Z,31.80
2018-07-22T10:31:03.781Z,32.20
2018-07-22T10:33:36.532Z,31.90
2018-07-22T10:36:09.352Z,31.90
2018-07-22T10:38:41.797Z,32.10
2018-07-22T10:41:11.457Z,31.90
2018-07-22T10:43:41.809Z,32.30
2018-07-22T10:46:18.476Z,32.40
2018-07-22T10:48:50.396Z,33.20
2018-07-22T10:51:22.104Z,32.60
2018-07-22T10:53:53.034Z,32.30
2018-07-22T10:56:26.413Z,32.30
2018-07-22T10:58:58.216Z,31.60
2018-07-22T11:01:29.749Z,30.30
2018-07-22T11:04:00.217Z,29.20
2018-07-22T11:06:30.909Z,28.20
2018-07-22T11:09:02.978Z,27.60
2018-07-22T11:11:33.252Z,27.10
2018-07-22T11:14:04.924Z,26.90
2018-07-22T11:16:46.540Z,26.80
2018-07-22T11:19:23.220Z,26.40
2018-07-22T11:21:55.733Z,26.00
2018-07-22T11:24:29.017Z,26.20
2018-07-22T11:27:09.429Z,26.50
2018-07-22T11:29:41.392Z,26.80
2018-07-22T11:34:51.287Z,26.40
2018-07-22T11:37:24.262Z,26.30
2018-07-22T11:39:55.513Z,26.50
2018-07-22T11:42:25.812Z,25.80
2018-07-22T11:44:55.343Z,26.10
2018-07-22T11:47:30.237Z,26.50
2018-07-22T11:52:36.133Z,26.70
2018-07-22T11:55:07.184Z,26.50
2018-07-22T11:57:38.273Z,26.60
2018-07-22T12:00:10.946Z,27.00
2018-07-22T12:02:40.348Z,27.00
2018-07-22T12:05:13.375Z,26.80
2018-07-22T12:07:42.994Z,27.10
2018-07-22T12:12:51.944Z,27.70
2018-07-22T12:15:22.749Z,27.10
2018-07-22T12:17:55.095Z,27.50
2018-07-22T12:20:30.564Z,27.80
2018-07-22T12:25:32.120Z,27.00
2018-07-22T12:28:02.734Z,27.30
2018-07-22T12:30:32.425Z,27.70
2018-07-22T12:33:01.569Z,27.70
2018-07-22T12:35:31.731Z,27.80
2018-07-22T12:38:01.321Z,27.30
2018-07-22T12:40:35.339Z,27.50
2018-07-22T12:43:09.137Z,26.60
2018-07-22T12:45:40.664Z,27.20
2018-07-22T12:48:14.931Z,27.70
2018-07-22T12:50:48.408Z,28.70
2018-07-22T12:53:18.307Z,28.90
2018-07-22T12:55:53.427Z,29.20
2018-07-22T12:58:23.803Z,29.00
2018-07-22T13:00:55.356Z,29.50
2018-07-22T13:03:25.817Z,29.60
2018-07-22T13:06:01.747Z,29.50
2018-07-22T13:08:35.281Z,29.00
2018-07-22T13:11:07.250Z,28.70
2018-07-22T13:13:39.140Z,28.30
2018-07-22T13:16:12.628Z,28.10
2018-07-22T13:21:13.948Z,30.00
2018-07-22T13:23:49.481Z,30.50
2018-07-22T13:26:20.976Z,31.10
2018-07-22T13:28:53.678Z,30.20
2018-07-22T13:31:36.184Z,30.10
2018-07-22T13:34:11.601Z,30.30
2018-07-22T13:36:49.740Z,31.60
2018-07-22T13:39:37.693Z,32.90
2018-07-22T13:42:15.177Z,33.40
2018-07-22T13:44:52.569Z,32.40
2018-07-22T13:47:30.157Z,31.80
2018-07-22T13:50:08.873Z,31.00
2018-07-22T13:52:46.464Z,31.00
2018-07-22T13:55:23.745Z,32.00
2018-07-22T13:57:59.754Z,33.00
2018-07-22T14:00:33.720Z,32.10
2018-07-22T14:03:05.489Z,31.60
2018-07-22T14:05:39.201Z,32.10
2018-07-22T14:08:17.576Z,31.70
2018-07-22T14:10:50.181Z,30.70
2018-07-22T14:15:56.664Z,31.30
2018-07-22T14:20:59.332Z,32.50
2018-07-22T14:23:32.857Z,32.70
2018-07-22T14:26:03.336Z,32.00
2018-07-22T14:28:32.587Z,32.30
2018-07-22T14:31:01.743Z,33.20
2018-07-22T14:33:31.069Z,33.40
2018-07-22T14:36:00.265Z,32.40
2018-07-22T14:38:29.468Z,32.40
2018-07-22T14:40:59.273Z,32.40
2018-07-22T14:43:28.220Z,32.90
2018-07-22T14:45:58.980Z,33.20
2018-07-22T14:48:28.223Z,33.40
2018-07-22T14:50:57.460Z,31.60
2018-07-22T14:53:27.367Z,31.50
2018-07-22T14:55:58.024Z,31.70
2018-07-22T14:58:27.312Z,32.10
2018-07-22T15:00:57.473Z,32.00
2018-07-22T15:03:26.669Z,32.50
2018-07-22T15:05:56.400Z,32.90
2018-07-22T15:08:26.080Z,32.50
2018-07-22T15:10:56.728Z,31.60
2018-07-22T15:13:27.830Z,30.70
2018-07-22T15:15:57.568Z,31.20
2018-07-22T15:18:28.005Z,31.80
2018-07-22T15:20:57.875Z,31.70
2018-07-22T15:23:34.070Z,31.80
2018-07-22T15:26:06.305Z,31.30
2018-07-22T15:28:43.903Z,31.40
2018-07-22T15:31:18.025Z,30.70
2018-07-22T15:33:51.161Z,29.90
2018-07-22T15:38:53.424Z,29.60
2018-07-22T15:41:24.184Z,29.70
2018-07-22T15:43:56.428Z,29.40
2018-07-22T15:46:28.592Z,29.00
2018-07-22T15:48:58.835Z,28.60
2018-07-22T15:51:29.344Z,28.40
2018-07-22T15:54:00.949Z,28.40
2018-07-22T15:56:33.466Z,28.30
2018-07-22T15:59:03.936Z,28.30
2018-07-22T16:04:04.018Z,28.40
2018-07-22T16:06:37.909Z,28.20
2018-07-22T16:09:12.268Z,27.70
2018-07-22T16:11:50.252Z,27.40
2018-07-22T16:14:22.667Z,27.50
2018-07-22T16:16:55.195Z,27.80
2018-07-22T16:19:25.979Z,27.70
2018-07-22T16:21:56.312Z,27.50
2018-07-22T16:24:27.645Z,26.60
2018-07-22T16:32:01.664Z,26.80
2018-07-22T16:34:34.576Z,26.90
2018-07-22T16:37:06.415Z,27.20
2018-07-22T16:39:37.260Z,27.30
2018-07-22T16:42:08.528Z,27.60
2018-07-22T16:44:39.469Z,27.70
2018-07-22T16:47:09.361Z,27.40
2018-07-22T16:49:39.408Z,27.00
2018-07-22T16:52:11.317Z,26.60
2018-07-22T16:54:44.304Z,26.90
2018-07-22T16:57:16.892Z,26.80
2018-07-22T16:59:47.853Z,26.80
2018-07-22T17:02:23.060Z,27.00
2018-07-22T17:04:53.234Z,27.10
2018-07-22T17:07:24.478Z,26.90
2018-07-22T17:09:55.072Z,26.80
2018-07-22T17:12:26.141Z,26.70
2018-07-22T17:14:56.577Z,26.50
2018-07-22T17:17:27.301Z,26.40
2018-07-22T17:19:57.106Z,26.20
2018-07-22T17:22:27.736Z,26.20
2018-07-22T17:25:00.733Z,26.10
2018-07-22T17:27:31.635Z,26.10
2018-07-22T17:30:02.598Z,26.10
2018-07-22T17:35:10.645Z,26.20
2018-07-22T17:37:40.893Z,26.30
2018-07-22T17:40:16.286Z,26.40
2018-07-22T17:42:45.370Z,26.10
2018-07-22T17:45:15.476Z,25.90
2018-07-22T17:47:50.478Z,26.00
2018-07-22T17:55:20.968Z,26.00
2018-07-22T17:57:57.077Z,26.00
2018-07-22T18:00:29.432Z,26.10
2018-07-22T18:03:24.044Z,26.00
2018-07-22T18:05:54.339Z,25.90
2018-07-22T18:08:28.644Z,25.60
2018-07-22T18:10:59.624Z,25.30
2018-07-22T18:13:34.233Z,25.20
2018-07-22T18:16:04.545Z,25.10
2018-07-22T18:18:37.952Z,25.20
2018-07-22T18:21:13.369Z,25.20
2018-07-22T18:23:43.642Z,25.40
2018-07-22T18:26:22.009Z,25.40
2018-07-22T18:28:52.852Z,25.40
2018-07-22T18:31:24.257Z,25.30
2018-07-22T18:33:53.593Z,25.00
2018-07-22T18:36:23.139Z,24.90
2018-07-22T18:38:54.505Z,24.80
2018-07-22T18:41:26.038Z,24.30
2018-07-22T18:44:00.260Z,24.00
2018-07-22T18:46:31.064Z,23.90
2018-07-22T18:49:04.100Z,23.90
2018-07-22T18:51:36.123Z,23.80
2018-07-22T18:54:06.760Z,23.80
2018-07-22T18:56:39.433Z,23.80
2018-07-22T18:59:09.456Z,23.80
2018-07-22T19:01:40.589Z,23.90
2018-07-22T19:04:16.498Z,24.00
2018-07-22T19:06:46.964Z,23.80
2018-07-22T19:09:18.241Z,23.70
2018-07-22T19:11:52.841Z,23.70
2018-07-22T19:14:23.782Z,23.60
2018-07-22T19:16:55.100Z,23.50
2018-07-22T19:19:25.687Z,23.40
2018-07-22T19:22:03.562Z,23.40
2018-07-22T19:24:34.823Z,23.30
2018-07-22T19:27:04.625Z,23.20
2018-07-22T19:34:36.029Z,22.90
2018-07-22T19:37:08.302Z,22.80
2018-07-22T19:39:40.130Z,22.70
2018-07-22T19:42:12.823Z,22.70
2018-07-22T19:44:46.034Z,22.60
2018-07-22T19:47:19.500Z,22.50
2018-07-22T19:49:49.023Z,22.50
2018-07-22T19:52:26.195Z,22.40
2018-07-22T19:54:58.068Z,22.20
2018-07-22T19:57:30.558Z,22.10
2018-07-22T20:00:05.510Z,22.10
2018-07-22T20:02:36.414Z,22.10
2018-07-22T20:05:08.217Z,22.00
2018-07-22T20:07:38.797Z,21.90
2018-07-22T20:10:10.454Z,22.00
2018-07-22T20:12:46.012Z,21.90
2018-07-22T20:15:17.145Z,21.90
2018-07-22T20:17:48.208Z,21.70
2018-07-22T20:20:21.193Z,21.70
2018-07-22T20:22:53.789Z,21.60
2018-07-22T20:25:23.453Z,21.60
2018-07-22T20:27:57.468Z,21.60
2018-07-22T20:30:37.210Z,21.50
2018-07-22T20:35:46.975Z,21.30
2018-07-22T20:38:16.565Z,21.30
2018-07-22T20:40:46.401Z,21.10
2018-07-22T20:43:19.735Z,21.10
2018-07-22T20:45:52.324Z,21.00
2018-07-22T20:48:28.181Z,20.90
2018-07-22T20:53:31.121Z,20.70
2018-07-22T20:56:01.655Z,20.60
2018-07-22T20:58:34.809Z,20.50
2018-07-22T21:03:39.952Z,20.50
2018-07-22T21:06:13.463Z,20.40
2018-07-22T21:11:15.691Z,20.40
2018-07-22T21:13:48.865Z,20.30
2018-07-22T21:16:18.869Z,20.10
2018-07-22T21:18:48.914Z,20.10
2018-07-22T21:21:18.327Z,20.00
2018-07-22T21:23:48.196Z,20.00
2018-07-22T21:28:52.043Z,19.90
2018-07-22T21:31:23.277Z,19.80
2018-07-22T21:33:54.610Z,19.80
2018-07-22T21:36:24.369Z,19.70
2018-07-22T21:39:01.087Z,19.70
2018-07-22T21:41:31.184Z,19.60
2018-07-22T21:44:01.541Z,19.60
2018-07-22T21:46:32.092Z,19.50
2018-07-22T21:49:01.781Z,19.40
2018-07-22T21:51:32.420Z,19.30
2018-07-22T21:56:32.052Z,19.20
2018-07-22T21:59:02.917Z,19.10
2018-07-22T22:01:36.673Z,19.00
2018-07-22T22:04:08.659Z,19.00
2018-07-22T22:06:38.017Z,18.90
2018-07-22T22:09:09.876Z,18.70
2018-07-22T22:11:41.008Z,18.70
2018-07-22T22:14:13.113Z,18.70
2018-07-22T22:16:43.739Z,18.70
2018-07-22T22:19:14.453Z,18.70
2018-07-22T22:21:44.683Z,18.60
2018-07-22T22:24:14.118Z,18.60
2018-07-22T22:29:21.358Z,18.50
2018-07-22T22:31:50.836Z,18.50
2018-07-22T22:34:25.898Z,18.50
2018-07-22T22:36:56.385Z,18.40
2018-07-22T22:41:59.996Z,18.30
2018-07-22T22:44:36.069Z,18.20
2018-07-22T22:47:13.144Z,18.10
2018-07-22T22:52:29.783Z,18.20
2018-07-22T22:55:09.117Z,18.10
2018-07-22T22:57:56.783Z,18.00
2018-07-22T23:03:16.051Z,17.90
2018-07-22T23:05:50.928Z,18.00
2018-07-22T23:08:26.477Z,17.90
2018-07-22T23:11:00.166Z,17.90
2018-07-22T23:13:43.093Z,17.90
2018-07-22T23:16:19.659Z,17.80
2018-07-22T23:18:59.660Z,17.70
2018-07-22T23:21:31.836Z,17.70
2018-07-22T23:24:07.720Z,17.60
2018-07-22T23:26:37.944Z,17.60
2018-07-22T23:29:10.360Z,17.60
2018-07-22T23:31:47.908Z,17.60
2018-07-22T23:34:20.589Z,17.50
2018-07-22T23:36:50.748Z,17.50
2018-07-22T23:39:19.880Z,17.50
2018-07-22T23:41:49.096Z,17.50
2018-07-22T23:44:18.213Z,17.50
2018-07-22T23:46:47.356Z,17.40
2018-07-22T23:49:17.056Z,17.40
2018-07-22T23:51:46.229Z,17.40
2018-07-22T23:54:15.576Z,17.30
2018-07-22T23:56:45.943Z,17.30
2018-07-22T23:59:15.256Z,17.20
